Time;durP1;ratioP1;P1;durP2;ratioP2;P2;SDS_P1;SDS_P2;PMS_P1;PMS_P2;Temp;Humidity;BMP_temperature;BMP_pressure;BME280_temperature;BME280_humidity;BME280_pressure;Samples;Min_cycle;Max_cycle;Signal;HPM_P1;HPM_P2
2021/01/13 00:01:05;;;;;;;;;;;0.70;99.90;;;;;;5071682;28;19909;-85
2021/01/13 00:03:38;;;;;;;;;;;0.60;99.90;;;;;;5069945;28;19936;-85
2021/01/13 00:06:07;;;;;;;;;;;0.60;99.90;;;;;;5071446;28;20038;-85
2021/01/13 00:08:32;;;;;;;;;;;0.60;99.90;;;;;;5071671;28;19909;-85
2021/01/13 00:11:01;;;;;;;;;;;0.60;99.90;;;;;;5071655;28;19963;-85
2021/01/13 00:13:30;;;;;;;;;;;0.60;99.90;;;;;;5071017;28;19909;-85
2021/01/13 00:16:02;;;;;;;;;;;0.60;99.90;;;;;;5072143;28;20399;-86
2021/01/13 00:18:32;;;;;;;;;;;0.50;99.90;;;;;;5071270;28;19908;-86
2021/01/13 00:21:03;;;;;;;;;;;0.60;99.90;;;;;;5076891;28;20364;-86
2021/01/13 00:23:31;;;;;;;;;;;0.50;99.90;;;;;;5108847;28;19997;-86
2021/01/13 00:26:00;;;;;;;;;;;0.50;99.90;;;;;;5112935;28;19915;-85
2021/01/13 00:28:32;;;;;;;;;;;0.50;99.90;;;;;;5114700;28;19908;-86
2021/01/13 00:31:08;;;;;;;;;;;0.40;99.90;;;;;;5114041;28;19911;-85
2021/01/13 00:33:36;;;;;;;;;;;0.40;99.90;;;;;;5109911;28;19957;-86
2021/01/13 00:36:15;;;;;;;;;;;0.40;99.90;;;;;;5111903;28;19919;-86
2021/01/13 00:38:40;;;;;;;;;;;0.30;99.90;;;;;;5101842;27;19920;-86
2021/01/13 00:41:10;;;;;;;;;;;0.30;99.90;;;;;;5116579;28;20014;-85
2021/01/13 00:43:39;;;;;;;;;;;0.30;99.90;;;;;;5116384;28;19908;-85
2021/01/13 00:46:05;;;;;;;;;;;0.30;99.90;;;;;;5117786;28;19910;-85
2021/01/13 00:48:40;;;;;;;;;;;0.20;99.90;;;;;;5116642;28;19953;-85
2021/01/13 00:51:10;;;;;;;;;;;0.20;99.90;;;;;;5118017;28;19908;-85
2021/01/13 00:53:43;;;;;;;;;;;0.20;99.90;;;;;;5116363;28;19907;-85
2021/01/13 00:56:38;;;;;;;;;;;0.20;99.90;;;;;;5117271;28;19920;-85
2021/01/13 00:59:11;;;;;;;;;;;0.20;99.90;;;;;;5114503;28;19911;-85
2021/01/13 01:01:40;;;;;;;;;;;0.20;99.90;;;;;;5116180;28;19908;-86
2021/01/13 01:04:14;;;;;;;;;;;0.20;99.90;;;;;;5116037;28;20311;-85
2021/01/13 01:06:51;;;;;;;;;;;0.30;99.90;;;;;;5116158;28;19919;-85
2021/01/13 01:09:19;;;;;;;;;;;0.30;99.90;;;;;;5116231;28;19908;-86
2021/01/13 01:11:51;;;;;;;;;;;0.40;99.90;;;;;;5116068;28;19908;-85
2021/01/13 01:14:22;;;;;;;;;;;0.40;99.90;;;;;;5113461;28;19912;-86
2021/01/13 01:16:55;;;;;;;;;;;0.50;99.90;;;;;;5114096;28;19916;-85
2021/01/13 01:19:21;;;;;;;;;;;0.50;99.90;;;;;;5117964;28;19995;-86
2021/01/13 01:21:49;;;;;;;;;;;0.60;99.90;;;;;;5116284;28;19970;-84
2021/01/13 01:24:20;;;;;;;;;;;0.70;99.90;;;;;;5115263;28;19908;-86
2021/01/13 01:26:56;;;;;;;;;;;0.80;99.90;;;;;;5113702;28;19912;-86
2021/01/13 01:29:31;;;;;;;;;;;0.80;99.90;;;;;;5115909;28;19914;-86
2021/01/13 01:32:12;;;;;;;;;;;0.90;99.90;;;;;;5115890;28;19961;-86
2021/01/13 01:34:50;;;;;;;;;;;0.90;99.90;;;;;;5116243;28;19943;-85
2021/01/13 01:37:18;;;;;;;;;;;0.90;99.90;;;;;;5115945;28;19907;-86
2021/01/13 01:39:50;;;;;;;;;;;0.90;99.90;;;;;;5110675;27;20018;-85
2021/01/13 01:42:28;;;;;;;;;;;;;;;;;;;;;
2021/01/13 01:45:01;;;;;;;;;;;0.80;99.90;;;;;;5137642;27;19914;-86
2021/01/13 01:47:45;;;;;;;;;;;0.80;99.90;;;;;;5118786;27;19907;-85
2021/01/13 01:50:17;;;;;;;;;;;0.70;99.90;;;;;;5118282;27;19914;-85
2021/01/13 01:53:19;;;;;;;;;;;0.80;99.90;;;;;;5137444;27;19994;-86
2021/01/13 01:56:04;;;;;;;;;;;0.70;99.90;;;;;;5079611;27;19916;-85
2021/01/13 01:58:32;;;;;;;;;;;0.60;99.90;;;;;;5119278;27;20275;-85
2021/01/13 02:01:03;;;;;;;;;;;0.60;99.90;;;;;;5119014;27;19915;-86
2021/01/13 02:03:43;;;;;;;;;;;0.60;99.90;;;;;;5132813;27;20344;-85
2021/01/13 02:06:16;;;;;;;;;;;0.50;99.90;;;;;;5117988;27;19973;-86
2021/01/13 02:08:44;;;;;;;;;;;0.40;99.90;;;;;;5118534;27;20352;-85
2021/01/13 02:11:14;;;;;;;;;;;0.20;99.90;;;;;;5113751;27;19911;-85
2021/01/13 02:13:43;;;;;;;;;;;0.10;99.90;;;;;;5118583;27;19919;-85
2021/01/13 02:16:18;;;;;;;;;;;0.00;99.90;;;;;;5136531;27;19915;-86
2021/01/13 02:18:46;;;;;;;;;;;0.00;99.90;;;;;;5119182;27;19907;-86
2021/01/13 02:21:22;;;;;;;;;;;0.00;99.90;;;;;;5094542;27;19957;-85
2021/01/13 02:24:09;;;;;;;;;;;0.00;99.90;;;;;;5136543;27;20325;-86
2021/01/13 02:27:04;;;;;;;;;;;0.00;99.90;;;;;;5118984;27;19907;-86
2021/01/13 02:29:44;;;;;;;;;;;0.00;99.90;;;;;;5117835;27;20431;-83
2021/01/13 02:32:19;;;;;;;;;;;0.10;99.90;;;;;;5131763;27;20424;-84
2021/01/13 02:35:16;;;;;;;;;;;0.30;99.90;;;;;;5118169;27;20011;-85
2021/01/13 02:37:53;;;;;;;;;;;0.50;99.90;;;;;;5111042;27;20457;-84
2021/01/13 02:40:23;;;;;;;;;;;0.60;99.90;;;;;;5136021;27;20016;-84
2021/01/13 02:43:02;;;;;;;;;;;0.80;99.90;;;;;;5136105;27;19915;-84
2021/01/13 02:45:54;;;;;;;;;;;0.80;99.90;;;;;;5136656;27;19990;-86
2021/01/13 02:48:23;;;;;;;;;;;0.90;99.90;;;;;;5115427;27;19912;-86
2021/01/13 02:50:59;;;;;;;;;;;1.00;99.90;;;;;;5113314;27;19908;-86
2021/01/13 02:53:34;;;;;;;;;;;1.10;99.90;;;;;;5118301;27;19908;-86
2021/01/13 02:56:09;;;;;;;;;;;1.20;99.90;;;;;;5117756;27;19920;-85
2021/01/13 02:58:45;;;;;;;;;;;1.30;99.90;;;;;;5117594;27;19913;-85
2021/01/13 03:01:22;;;;;;;;;;;1.30;99.90;;;;;;5114080;27;19919;-84
2021/01/13 03:03:51;;;;;;;;;;;1.30;99.90;;;;;;5115017;27;19908;-85
2021/01/13 03:06:22;;;;;;;;;;;1.40;99.90;;;;;;5130461;27;19907;-85
2021/01/13 03:08:50;;;;;;;;;;;1.40;99.90;;;;;;5117843;27;19907;-85
2021/01/13 03:11:22;;;;;;;;;;;1.30;99.90;;;;;;5135853;27;19908;-85
2021/01/13 03:13:55;;;;;;;;;;;1.20;99.90;;;;;;5116999;27;19914;-86
2021/01/13 03:16:26;;;;;;;;;;;1.10;99.90;;;;;;5132039;27;20276;-84
2021/01/13 03:19:07;;;;;;;;;;;1.20;99.90;;;;;;5135472;27;19939;-86
2021/01/13 03:21:47;;;;;;;;;;;1.20;99.90;;;;;;5114993;28;20400;-86
2021/01/13 03:24:31;;;;;;;;;;;1.20;99.90;;;;;;5116831;27;19907;-86
2021/01/13 03:27:00;;;;;;;;;;;1.20;99.90;;;;;;5114026;27;19912;-85
2021/01/13 03:29:29;;;;;;;;;;;1.10;99.90;;;;;;5117101;27;19907;-85
2021/01/13 03:32:07;;;;;;;;;;;1.20;99.90;;;;;;5117430;27;19915;-86
2021/01/13 03:34:52;;;;;;;;;;;1.10;99.90;;;;;;5117083;28;19930;-85
2021/01/13 03:37:31;;;;;;;;;;;1.20;99.90;;;;;;5135287;28;19915;-86
2021/01/13 03:40:08;;;;;;;;;;;1.30;99.90;;;;;;5116808;28;19914;-85
2021/01/13 03:42:40;;;;;;;;;;;1.40;99.90;;;;;;5117400;28;19907;-85
2021/01/13 03:45:10;;;;;;;;;;;1.40;99.90;;;;;;5116736;28;19912;-85
2021/01/13 03:47:50;;;;;;;;;;;1.50;99.90;;;;;;5135238;28;20280;-86
2021/01/13 03:50:18;;;;;;;;;;;1.50;99.90;;;;;;5117275;28;19907;-86
2021/01/13 03:53:04;;;;;;;;;;;1.50;99.90;;;;;;5117570;28;19994;-87
2021/01/13 03:55:37;;;;;;;;;;;1.50;99.90;;;;;;5116368;28;19969;-87
2021/01/13 03:58:12;;;;;;;;;;;1.60;99.90;;;;;;5117572;28;20364;-86
2021/01/13 04:00:41;;;;;;;;;;;1.70;99.90;;;;;;5119045;28;20002;-86
2021/01/13 04:03:12;;;;;;;;;;;1.90;99.90;;;;;;5117509;28;19922;-86
2021/01/13 04:05:49;;;;;;;;;;;2.00;99.90;;;;;;5117404;28;19912;-86
2021/01/13 04:08:18;;;;;;;;;;;2.00;99.90;;;;;;5134787;28;19911;-86
2021/01/13 04:10:55;;;;;;;;;;;2.20;99.90;;;;;;5116948;28;19915;-86
2021/01/13 04:13:37;;;;;;;;;;;2.20;99.90;;;;;;5120752;27;19911;-86
2021/01/13 04:16:11;;;;;;;;;;;2.30;99.90;;;;;;5120945;27;20010;-86
2021/01/13 04:18:41;;;;;;;;;;;2.30;99.90;;;;;;5120513;27;19912;-86
2021/01/13 04:21:10;;;;;;;;;;;2.40;99.90;;;;;;5136024;27;19934;-86
2021/01/13 04:23:39;;;;;;;;;;;2.40;99.90;;;;;;5139061;27;19908;-85
2021/01/13 04:26:12;;;;;;;;;;;2.40;99.90;;;;;;5121038;27;20413;-85
2021/01/13 04:28:41;;;;;;;;;;;2.40;99.90;;;;;;5120329;27;19914;-85
2021/01/13 04:31:14;;;;;;;;;;;2.50;99.90;;;;;;5120327;27;19908;-85
2021/01/13 04:33:47;;;;;;;;;;;2.50;99.90;;;;;;5120681;27;19911;-85
2021/01/13 04:36:17;;;;;;;;;;;2.60;99.90;;;;;;5119944;27;19921;-86
2021/01/13 04:38:44;;;;;;;;;;;2.60;99.90;;;;;;5120092;27;19908;-85
2021/01/13 04:41:32;;;;;;;;;;;2.70;99.90;;;;;;5111580;28;20398;-86
2021/01/13 04:44:02;;;;;;;;;;;2.70;99.90;;;;;;5113506;28;19958;-86
2021/01/13 04:46:34;;;;;;;;;;;2.70;99.90;;;;;;5116561;28;19915;-85
2021/01/13 04:49:21;;;;;;;;;;;2.80;99.90;;;;;;5116730;28;20374;-85
2021/01/13 04:51:54;;;;;;;;;;;2.70;99.90;;;;;;5113803;28;20075;-85
2021/01/13 04:54:21;;;;;;;;;;;2.80;99.90;;;;;;5116393;28;19919;-86
2021/01/13 04:56:55;;;;;;;;;;;2.80;99.90;;;;;;5117705;28;19951;-86
2021/01/13 04:59:44;;;;;;;;;;;2.80;99.90;;;;;;5117113;28;19908;-84
2021/01/13 05:02:11;;;;;;;;;;;2.80;99.90;;;;;;5117399;28;19912;-84
2021/01/13 05:04:59;;;;;;;;;;;2.80;99.90;;;;;;5117427;28;19908;-84
2021/01/13 05:07:28;;;;;;;;;;;2.80;99.90;;;;;;5118116;28;19908;-84
2021/01/13 05:10:06;;;;;;;;;;;2.80;99.90;;;;;;5116800;28;19969;-86
2021/01/13 05:12:50;;;;;;;;;;;2.80;99.90;;;;;;5115820;28;20007;-85
2021/01/13 05:15:17;;;;;;;;;;;2.80;99.90;;;;;;5115969;28;19923;-85
2021/01/13 05:17:58;;;;;;;;;;;2.70;99.90;;;;;;5116531;28;19907;-85
2021/01/13 05:20:27;;;;;;;;;;;2.60;99.90;;;;;;5116082;28;19908;-85
2021/01/13 05:23:00;;;;;;;;;;;2.50;99.90;;;;;;5116046;28;20002;-85
2021/01/13 05:25:38;;;;;;;;;;;2.40;99.90;;;;;;5056787;28;19909;-84
2021/01/13 05:28:17;;;;;;;;;;;2.30;99.90;;;;;;5057566;28;19908;-85
2021/01/13 05:30:57;;;;;;;;;;;2.20;99.90;;;;;;5074441;28;19955;-84
2021/01/13 05:33:32;;;;;;;;;;;2.10;99.90;;;;;;5074651;28;19909;-84
2021/01/13 05:36:01;;;;;;;;;;;2.10;99.90;;;;;;5073951;28;19928;-85
2021/01/13 05:38:39;;;;;;;;;;;2.00;99.90;;;;;;5074376;28;19915;-85
2021/01/13 05:41:34;;;;;;;;;;;2.00;99.90;;;;;;5073773;28;20369;-85
2021/01/13 05:44:03;;;;;;;;;;;1.90;99.90;;;;;;5059682;28;19916;-86
2021/01/13 05:46:57;;;;;;;;;;;1.90;99.90;;;;;;5074166;28;19934;-85
2021/01/13 05:49:25;;;;;;;;;;;1.90;99.90;;;;;;5053921;28;19912;-84
2021/01/13 05:51:54;;;;;;;;;;;1.90;99.90;;;;;;5073747;28;19916;-84
2021/01/13 05:54:31;;;;;;;;;;;1.90;99.90;;;;;;5073211;28;19920;-84
2021/01/13 05:56:57;;;;;;;;;;;1.90;99.90;;;;;;5105131;28;19961;-84
2021/01/13 05:59:27;;;;;;;;;;;1.90;99.90;;;;;;5111630;28;20360;-84
2021/01/13 06:02:05;;;;;;;;;;;1.90;99.90;;;;;;5114268;28;19908;-84
2021/01/13 06:04:32;;;;;;;;;;;1.90;99.90;;;;;;5115223;28;20344;-85
2021/01/13 06:06:58;;;;;;;;;;;1.90;99.90;;;;;;5108522;28;19970;-84
2021/01/13 06:09:27;;;;;;;;;;;1.90;99.90;;;;;;5114855;28;19980;-85
2021/01/13 06:12:03;;;;;;;;;;;1.90;99.90;;;;;;5115829;28;19908;-84
2021/01/13 06:14:38;;;;;;;;;;;1.90;99.90;;;;;;5114896;28;19998;-84
2021/01/13 06:17:10;;;;;;;;;;;2.00;99.90;;;;;;5114395;28;20006;-84
2021/01/13 06:19:46;;;;;;;;;;;2.00;99.90;;;;;;5111770;28;19912;-84
2021/01/13 06:22:14;;;;;;;;;;;2.00;99.90;;;;;;5122431;27;19907;-84
2021/01/13 06:24:43;;;;;;;;;;;1.90;99.90;;;;;;5114330;28;19915;-84
2021/01/13 06:27:15;;;;;;;;;;;1.90;99.90;;;;;;5107566;28;19954;-85
2021/01/13 06:29:53;;;;;;;;;;;1.90;99.90;;;;;;5108554;28;19915;-85
2021/01/13 06:32:35;;;;;;;;;;;1.90;99.90;;;;;;5114247;28;19915;-85
2021/01/13 06:35:03;;;;;;;;;;;1.80;99.90;;;;;;5115220;28;20011;-84
2021/01/13 06:37:40;;;;;;;;;;;1.80;99.90;;;;;;5113537;28;19908;-85
2021/01/13 06:40:16;;;;;;;;;;;1.70;99.90;;;;;;5115896;28;19908;-84
2021/01/13 06:42:44;;;;;;;;;;;1.70;99.90;;;;;;5114374;28;19927;-84
2021/01/13 06:45:13;;;;;;;;;;;1.70;99.90;;;;;;5114662;28;19918;-84
2021/01/13 06:47:57;;;;;;;;;;;1.60;99.90;;;;;;5114348;28;19908;-85
2021/01/13 06:50:37;;;;;;;;;;;1.60;99.90;;;;;;5105368;28;19914;-85
2021/01/13 06:53:09;;;;;;;;;;;1.60;99.90;;;;;;5111081;28;19915;-86
2021/01/13 06:55:36;;;;;;;;;;;1.70;99.90;;;;;;5114176;28;19916;-84
2021/01/13 06:58:10;;;;;;;;;;;1.70;99.90;;;;;;5110870;28;19912;-84
2021/01/13 07:00:43;;;;;;;;;;;1.70;99.90;;;;;;5113752;28;19908;-84
2021/01/13 07:03:18;;;;;;;;;;;1.70;99.90;;;;;;5113637;28;19907;-85
2021/01/13 07:05:52;;;;;;;;;;;1.70;99.90;;;;;;5114674;28;19908;-84
2021/01/13 07:08:21;;;;;;;;;;;1.70;99.90;;;;;;5113820;28;19908;-84
2021/01/13 07:11:00;;;;;;;;;;;1.80;99.90;;;;;;5107641;28;19919;-84
2021/01/13 07:13:29;;;;;;;;;;;1.70;99.90;;;;;;5115094;28;19950;-85
2021/01/13 07:15:58;;;;;;;;;;;1.70;99.90;;;;;;5113556;28;19916;-85
2021/01/13 07:18:30;;;;;;;;;;;1.80;99.90;;;;;;5114371;28;20034;-85
2021/01/13 07:21:16;;;;;;;;;;;1.80;99.90;;;;;;5115138;28;19912;-86
2021/01/13 07:23:48;;;;;;;;;;;1.80;99.90;;;;;;5114576;28;19908;-85
2021/01/13 07:26:14;;;;;;;;;;;1.70;99.90;;;;;;5116768;28;20012;-85
2021/01/13 07:28:43;;;;;;;;;;;1.70;99.90;;;;;;5114545;28;20379;-85
2021/01/13 07:31:17;;;;;;;;;;;1.70;99.90;;;;;;5111740;28;20338;-85
2021/01/13 07:33:53;;;;;;;;;;;1.70;99.90;;;;;;5115057;28;20253;-85
2021/01/13 07:36:25;;;;;;;;;;;1.70;99.90;;;;;;5108723;28;19923;-85
2021/01/13 07:38:58;;;;;;;;;;;1.70;99.90;;;;;;5113537;28;19912;-85
2021/01/13 07:41:45;;;;;;;;;;;1.70;99.90;;;;;;5124478;28;19923;-85
2021/01/13 07:44:36;;;;;;;;;;;1.60;99.90;;;;;;5116407;28;19914;-85
2021/01/13 07:47:08;;;;;;;;;;;1.60;99.90;;;;;;5115765;28;19907;-86
2021/01/13 07:49:54;;;;;;;;;;;1.60;99.90;;;;;;5113381;28;20348;-86
2021/01/13 07:52:23;;;;;;;;;;;1.60;99.90;;;;;;5130434;28;20387;-85
2021/01/13 07:55:00;;;;;;;;;;;1.60;99.90;;;;;;5034934;28;19995;-85
2021/01/13 07:57:43;;;;;;;;;;;1.60;99.90;;;;;;5051592;28;20285;-85
2021/01/13 08:00:14;;;;;;;;;;;1.50;99.90;;;;;;5048756;28;19913;-85
2021/01/13 08:03:01;;;;;;;;;;;1.50;99.90;;;;;;5048586;28;19916;-85
2021/01/13 08:05:29;;;;;;;;;;;1.60;99.90;;;;;;5051599;28;19909;-85
2021/01/13 08:08:08;;;;;;;;;;;1.60;99.90;;;;;;5034684;28;19968;-86
2021/01/13 08:10:37;;;;;;;;;;;1.60;99.90;;;;;;5048987;28;19912;-85
2021/01/13 08:13:21;;;;;;;;;;;1.60;99.90;;;;;;5051911;28;20011;-85
2021/01/13 08:15:46;;;;;;;;;;;1.60;99.90;;;;;;5035039;28;19931;-86
2021/01/13 08:18:24;;;;;;;;;;;1.60;99.90;;;;;;5052169;28;19908;-85
2021/01/13 08:21:03;;;;;;;;;;;1.60;99.90;;;;;;5051938;28;19913;-85
2021/01/13 08:23:40;;;;;;;;;;;1.60;99.90;;;;;;5051496;28;19955;-86
2021/01/13 08:26:14;;;;;;;;;;;1.60;99.90;;;;;;5089646;28;19908;-85
2021/01/13 08:28:44;;;;;;;;;;;1.60;99.90;;;;;;5113226;28;20013;-86
2021/01/13 08:31:18;;;;;;;;;;;1.60;99.90;;;;;;5134765;28;19911;-86
2021/01/13 08:33:48;;;;;;;;;;;1.60;99.90;;;;;;5116400;28;19907;-86
2021/01/13 08:36:17;;;;;;;;;;;1.60;99.90;;;;;;5116256;28;19961;-87
2021/01/13 08:39:01;;;;;;;;;;;1.60;99.90;;;;;;5116097;28;20323;-86
2021/01/13 08:41:32;;;;;;;;;;;1.70;99.90;;;;;;5116026;28;19920;-86
2021/01/13 08:44:03;;;;;;;;;;;1.80;99.90;;;;;;5116432;28;20268;-86
2021/01/13 08:46:39;;;;;;;;;;;1.80;99.90;;;;;;5116132;28;19960;-86
2021/01/13 08:49:09;;;;;;;;;;;1.90;99.90;;;;;;5110689;28;19998;-86
2021/01/13 08:51:37;;;;;;;;;;;2.00;99.90;;;;;;5112936;28;19918;-86
2021/01/13 08:54:21;;;;;;;;;;;2.00;99.90;;;;;;5116372;28;19990;-86
2021/01/13 08:57:01;;;;;;;;;;;2.10;99.90;;;;;;5115903;28;20390;-86
2021/01/13 08:59:42;;;;;;;;;;;2.30;99.90;;;;;;5112909;27;19908;-86
2021/01/13 09:02:13;;;;;;;;;;;2.40;99.90;;;;;;5120213;27;19907;-86
2021/01/13 09:04:59;;;;;;;;;;;2.50;99.90;;;;;;5138696;27;20004;-86
2021/01/13 09:07:44;;;;;;;;;;;2.70;99.90;;;;;;5141586;27;19946;-86
2021/01/13 09:10:16;;;;;;;;;;;3.00;99.90;;;;;;5117092;27;19919;-86
2021/01/13 09:12:45;;;;;;;;;;;3.10;99.90;;;;;;5134276;27;19911;-87
2021/01/13 09:15:15;;;;;;;;;;;3.30;99.90;;;;;;5116444;27;19911;-86
2021/01/13 09:18:00;;;;;;;;;;;3.60;99.90;;;;;;5136516;27;19914;-83
2021/01/13 09:20:32;;;;;;;;;;;4.00;99.90;;;;;;5138065;27;20006;-84
2021/01/13 09:23:21;;;;;;;;;;;4.10;99.90;;;;;;5138390;27;19911;-86
2021/01/13 09:25:55;;;;;;;;;;;4.10;99.90;;;;;;5119865;27;19908;-85
2021/01/13 09:28:21;;;;;;;;;;;4.20;99.90;;;;;;5116493;27;19911;-85
2021/01/13 09:31:10;;;;;;;;;;;4.30;99.90;;;;;;5138084;27;20305;-84
2021/01/13 09:33:39;;;;;;;;;;;4.50;99.90;;;;;;5118727;27;19911;-85
2021/01/13 09:36:07;;;;;;;;;;;4.50;99.90;;;;;;5119083;27;19922;-84
2021/01/13 09:38:41;;;;;;;;;;;4.40;99.90;;;;;;5114386;27;19908;-84
2021/01/13 09:41:07;;;;;;;;;;;4.20;99.90;;;;;;5114993;27;20486;-85
2021/01/13 09:43:49;;;;;;;;;;;4.10;99.90;;;;;;5119470;27;19962;-85
2021/01/13 09:46:23;;;;;;;;;;;3.90;99.90;;;;;;5137633;27;19951;-85
2021/01/13 09:48:59;;;;;;;;;;;3.90;99.90;;;;;;5118768;27;20006;-85
2021/01/13 09:51:30;;;;;;;;;;;4.00;99.90;;;;;;5036431;28;19909;-86
2021/01/13 09:54:02;;;;;;;;;;;4.30;99.90;;;;;;5053254;28;19928;-84
2021/01/13 09:56:31;;;;;;;;;;;4.40;99.90;;;;;;5051137;28;19921;-84
2021/01/13 09:59:00;;;;;;;;;;;4.60;99.90;;;;;;5053478;28;19916;-84
2021/01/13 10:01:32;;;;;;;;;;;4.70;99.90;;;;;;5036693;28;19909;-85
2021/01/13 10:04:04;;;;;;;;;;;4.70;99.90;;;;;;5049083;28;19909;-85
2021/01/13 10:06:34;;;;;;;;;;;4.80;99.90;;;;;;5053774;28;19932;-85
2021/01/13 10:09:07;;;;;;;;;;;4.70;99.90;;;;;;5053289;28;19913;-84
2021/01/13 10:11:34;;;;;;;;;;;4.60;99.90;;;;;;5052734;28;19913;-84
2021/01/13 10:14:10;;;;;;;;;;;4.60;99.90;;;;;;5037093;28;19913;-84
2021/01/13 10:16:40;;;;;;;;;;;4.50;99.90;;;;;;5053386;28;20384;-85
2021/01/13 10:19:09;;;;;;;;;;;4.50;99.90;;;;;;5050812;28;20416;-85
2021/01/13 10:21:38;;;;;;;;;;;4.70;99.90;;;;;;5055693;28;19912;-84
2021/01/13 10:24:07;;;;;;;;;;;5.40;99.90;;;;;;5076408;28;19908;-85
2021/01/13 10:26:38;;;;;;;;;;;6.00;99.90;;;;;;5093665;28;19908;-85
2021/01/13 10:29:07;;;;;;;;;;;6.30;99.90;;;;;;5076210;28;19908;-85
2021/01/13 10:31:33;;;;;;;;;;;6.50;99.90;;;;;;5074351;28;19938;-85
2021/01/13 10:34:01;;;;;;;;;;;6.70;99.90;;;;;;5073543;28;19918;-85
2021/01/13 10:36:36;;;;;;;;;;;6.90;99.70;;;;;;5071325;28;19966;-84
2021/01/13 10:39:12;;;;;;;;;;;6.70;99.30;;;;;;5076072;28;19914;-84
2021/01/13 10:42:03;;;;;;;;;;;6.40;99.90;;;;;;5091715;28;19960;-85
2021/01/13 10:44:32;;;;;;;;;;;6.30;99.90;;;;;;5076450;28;19908;-85
2021/01/13 10:47:12;;;;;;;;;;;6.10;99.90;;;;;;5092971;28;19908;-84
2021/01/13 10:49:58;;;;;;;;;;;5.90;99.90;;;;;;5093295;27;19934;-85
2021/01/13 10:52:30;;;;;;;;;;;5.70;99.90;;;;;;5118149;27;19961;-84
2021/01/13 10:55:02;;;;;;;;;;;5.60;99.90;;;;;;5118166;27;19907;-85
2021/01/13 10:57:27;;;;;;;;;;;5.60;99.90;;;;;;5113529;27;19916;-84
2021/01/13 11:00:11;;;;;;;;;;;5.60;99.90;;;;;;5135925;27;19939;-84
2021/01/13 11:02:39;;;;;;;;;;;5.70;99.90;;;;;;5117509;27;20319;-85
2021/01/13 11:05:11;;;;;;;;;;;5.70;99.90;;;;;;5136274;27;19911;-84
2021/01/13 11:07:38;;;;;;;;;;;5.80;99.90;;;;;;5115892;27;19915;-85
2021/01/13 11:10:08;;;;;;;;;;;5.90;99.90;;;;;;5117188;27;19907;-85
2021/01/13 11:12:35;;;;;;;;;;;5.90;99.90;;;;;;5135647;27;20275;-85
2021/01/13 11:15:04;;;;;;;;;;;6.10;99.90;;;;;;5116541;27;19915;-85
2021/01/13 11:17:40;;;;;;;;;;;6.60;99.90;;;;;;5135891;27;19972;-85
2021/01/13 11:20:08;;;;;;;;;;;7.40;99.90;;;;;;5135745;27;19912;-85
2021/01/13 11:22:44;;;;;;;;;;;8.30;99.90;;;;;;5116947;27;19907;-85
2021/01/13 11:25:24;;;;;;;;;;;8.70;96.50;;;;;;5116867;27;19912;-86
2021/01/13 11:28:06;;;;;;;;;;;9.40;93.80;;;;;;5117359;27;19934;-85
2021/01/13 11:30:39;;;;;;;;;;;9.10;90.40;;;;;;5135807;27;20017;-86
2021/01/13 11:33:11;;;;;;;;;;;8.50;90.10;;;;;;5116918;27;19908;-85
2021/01/13 11:35:39;;;;;;;;;;;8.10;91.40;;;;;;5117005;27;19915;-86
2021/01/13 11:38:10;;;;;;;;;;;7.70;91.70;;;;;;5135318;27;19914;-86
2021/01/13 11:40:45;;;;;;;;;;;7.40;92.60;;;;;;5116737;27;19919;-86
2021/01/13 11:43:31;;;;;;;;;;;7.20;93.50;;;;;;5117231;27;19916;-86
2021/01/13 11:46:08;;;;;;;;;;;6.90;94.20;;;;;;5116920;28;19969;-86
2021/01/13 11:48:50;;;;;;;;;;;6.60;94.60;;;;;;5116969;28;19908;-86
2021/01/13 11:51:42;;;;;;;;;;;6.40;95.30;;;;;;5134491;28;19907;-85
2021/01/13 11:54:13;;;;;;;;;;;6.20;96.60;;;;;;5113709;28;19911;-86
2021/01/13 11:56:41;;;;;;;;;;;6.10;97.60;;;;;;5116314;28;19915;-86
2021/01/13 11:59:30;;;;;;;;;;;6.00;98.00;;;;;;5135077;28;19907;-85
2021/01/13 12:02:02;;;;;;;;;;;5.90;98.90;;;;;;5115884;28;20360;-84
2021/01/13 12:04:28;;;;;;;;;;;5.80;99.80;;;;;;5135049;28;20267;-85
2021/01/13 12:07:09;;;;;;;;;;;5.90;99.90;;;;;;5112028;28;19999;-85
2021/01/13 12:09:36;;;;;;;;;;;6.00;99.90;;;;;;5116916;28;19919;-85
2021/01/13 12:12:06;;;;;;;;;;;6.20;99.90;;;;;;5112476;28;19915;-85
2021/01/13 12:14:41;;;;;;;;;;;6.60;99.90;;;;;;5115041;28;19946;-86
2021/01/13 12:17:10;;;;;;;;;;;7.20;98.90;;;;;;5116785;28;19922;-87
2021/01/13 12:19:39;;;;;;;;;;;7.90;96.20;;;;;;5054928;28;20388;-85
2021/01/13 12:22:19;;;;;;;;;;;8.40;92.80;;;;;;5055325;28;19909;-87
2021/01/13 12:24:51;;;;;;;;;;;8.70;91.80;;;;;;5068955;28;19915;-86
2021/01/13 12:27:23;;;;;;;;;;;9.50;90.40;;;;;;5071569;28;19912;-85
2021/01/13 12:30:07;;;;;;;;;;;9.90;84.30;;;;;;5071571;28;19908;-85
2021/01/13 12:32:40;;;;;;;;;;;10.30;78.80;;;;;;5075501;28;19977;-86
2021/01/13 12:35:32;;;;;;;;;;;10.90;75.60;;;;;;5073840;28;19939;-85
2021/01/13 12:38:00;;;;;;;;;;;11.00;73.00;;;;;;5058224;28;19915;-85
2021/01/13 12:40:33;;;;;;;;;;;11.20;69.90;;;;;;5057904;28;19908;-86
2021/01/13 12:43:34;;;;;;;;;;;11.60;67.10;;;;;;5074557;28;19932;-85
2021/01/13 12:46:08;;;;;;;;;;;12.10;65.70;;;;;;5058213;28;20274;-85
2021/01/13 12:48:34;;;;;;;;;;;12.60;62.20;;;;;;5068995;28;19973;-85
2021/01/13 12:51:12;;;;;;;;;;;12.70;60.50;;;;;;5096068;28;19912;-85
2021/01/13 12:53:53;;;;;;;;;;;12.80;60.40;;;;;;5117294;28;19911;-86
2021/01/13 12:56:25;;;;;;;;;;;13.10;59.40;;;;;;5110173;28;19916;-85
2021/01/13 12:58:54;;;;;;;;;;;13.20;59.10;;;;;;5116151;28;19947;-86
2021/01/13 13:01:23;;;;;;;;;;;13.20;57.80;;;;;;5117645;28;20406;-85
2021/01/13 13:03:48;;;;;;;;;;;13.00;58.00;;;;;;5110916;28;20288;-85
2021/01/13 13:06:27;;;;;;;;;;;12.60;58.00;;;;;;5116199;28;19908;-85
2021/01/13 13:09:07;;;;;;;;;;;12.50;58.70;;;;;;5109761;28;19908;-85
2021/01/13 13:11:37;;;;;;;;;;;12.50;57.70;;;;;;5115986;28;19908;-85
2021/01/13 13:14:03;;;;;;;;;;;12.40;58.80;;;;;;5115713;28;19994;-85
2021/01/13 13:16:36;;;;;;;;;;;12.50;57.10;;;;;;5115459;28;19916;-85
2021/01/13 13:19:05;;;;;;;;;;;12.20;56.90;;;;;;5115960;28;19907;-85
2021/01/13 13:21:52;;;;;;;;;;;11.90;57.90;;;;;;5116839;28;20271;-85
2021/01/13 13:24:20;;;;;;;;;;;11.70;58.70;;;;;;5112683;28;19911;-85
2021/01/13 13:26:51;;;;;;;;;;;11.50;58.50;;;;;;5116940;28;19908;-84
2021/01/13 13:29:23;;;;;;;;;;;11.10;59.50;;;;;;5116878;28;19915;-85
2021/01/13 13:31:52;;;;;;;;;;;10.90;60.20;;;;;;5115782;28;19908;-84
2021/01/13 13:34:21;;;;;;;;;;;10.70;60.50;;;;;;5117591;28;20064;-85
2021/01/13 13:37:02;;;;;;;;;;;10.70;61.90;;;;;;5115703;28;19916;-85
2021/01/13 13:39:48;;;;;;;;;;;10.90;60.90;;;;;;5117327;28;19920;-85
2021/01/13 13:42:17;;;;;;;;;;;11.10;60.90;;;;;;5120373;28;19928;-86
2021/01/13 13:44:50;;;;;;;;;;;11.20;59.40;;;;;;5116042;28;19912;-85
2021/01/13 13:47:21;;;;;;;;;;;11.00;60.00;;;;;;5115622;28;19930;-85
2021/01/13 13:49:52;;;;;;;;;;;10.70;61.20;;;;;;5116352;28;19940;-85
2021/01/13 13:52:23;;;;;;;;;;;10.00;62.40;;;;;;5115434;28;20007;-85
2021/01/13 13:54:52;;;;;;;;;;;9.40;63.90;;;;;;5113195;28;20354;-85
2021/01/13 13:57:20;;;;;;;;;;;8.80;65.90;;;;;;5112736;28;20291;-85
2021/01/13 13:59:52;;;;;;;;;;;8.30;67.60;;;;;;5115400;28;19961;-85
2021/01/13 14:02:20;;;;;;;;;;;7.90;68.80;;;;;;5113239;28;19935;-85
2021/01/13 14:04:51;;;;;;;;;;;7.60;69.80;;;;;;5109864;28;19912;-85
2021/01/13 14:07:34;;;;;;;;;;;7.30;70.20;;;;;;5097445;28;19965;-85
2021/01/13 14:10:17;;;;;;;;;;;7.10;72.00;;;;;;5112157;28;19916;-85
2021/01/13 14:12:50;;;;;;;;;;;7.00;72.20;;;;;;5117318;28;19998;-85
2021/01/13 14:15:20;;;;;;;;;;;6.90;73.20;;;;;;5060290;28;19909;-85
2021/01/13 14:17:58;;;;;;;;;;;6.90;73.20;;;;;;5070673;28;19912;-85
2021/01/13 14:20:31;;;;;;;;;;;6.90;74.00;;;;;;5073738;28;19909;-85
2021/01/13 14:22:59;;;;;;;;;;;6.90;74.30;;;;;;4997432;28;19956;-85
2021/01/13 14:25:30;;;;;;;;;;;6.80;74.80;;;;;;4997241;28;19910;-85
2021/01/13 14:27:59;;;;;;;;;;;6.80;75.60;;;;;;5009660;28;19931;-85
2021/01/13 14:30:27;;;;;;;;;;;6.70;76.20;;;;;;4997157;28;19913;-86
2021/01/13 14:33:03;;;;;;;;;;;6.70;75.70;;;;;;5014053;28;19909;-86
2021/01/13 14:35:36;;;;;;;;;;;6.60;76.00;;;;;;4997155;28;19925;-85
2021/01/13 14:38:04;;;;;;;;;;;6.60;76.50;;;;;;4996840;28;19954;-85
2021/01/13 14:40:33;;;;;;;;;;;6.50;76.70;;;;;;4992411;28;19909;-86
2021/01/13 14:43:02;;;;;;;;;;;6.30;77.50;;;;;;5012917;28;20414;-85
2021/01/13 14:45:30;;;;;;;;;;;6.30;77.90;;;;;;5005001;28;19979;-85
2021/01/13 14:47:57;;;;;;;;;;;6.10;78.60;;;;;;5031810;28;20406;-85
2021/01/13 14:50:28;;;;;;;;;;;5.90;78.80;;;;;;5036323;28;20373;-85
2021/01/13 14:53:02;;;;;;;;;;;5.80;80.00;;;;;;5042097;28;20290;-85
2021/01/13 14:55:31;;;;;;;;;;;5.70;80.70;;;;;;5109853;28;20394;-85
2021/01/13 14:57:59;;;;;;;;;;;5.50;81.60;;;;;;5106760;28;19908;-85
2021/01/13 15:00:29;;;;;;;;;;;5.40;82.20;;;;;;5113954;28;19914;-85
2021/01/13 15:03:05;;;;;;;;;;;5.40;83.00;;;;;;5114078;28;20251;-85
2021/01/13 15:05:36;;;;;;;;;;;5.30;83.50;;;;;;5113416;28;19951;-86
2021/01/13 15:08:05;;;;;;;;;;;5.20;84.10;;;;;;5114478;28;19967;-85